Time;durP1;ratioP1;P1;durP2;ratioP2;P2;SDS_P1;SDS_P2;PMS_P1;PMS_P2;Temp;Humidity;BMP_temperature;BMP_pressure;BME280_temperature;BME280_humidity;BME280_pressure;Samples;Min_cycle;Max_cycle;Signal;HPM_P1;HPM_P2
2022/09/04 00:00:02;;;;;;;6.80;6.03;;;17.00;99.90;;;;;;5014644;28;20869;-84
2022/09/04 00:02:42;;;;;;;6.87;6.37;;;17.00;99.90;;;;;;5024010;28;20450;-85
2022/09/04 00:05:16;;;;;;;7.30;6.60;;;17.00;99.90;;;;;;5024136;28;20472;-83
2022/09/04 00:07:57;;;;;;;6.30;5.70;;;17.00;99.90;;;;;;5028337;28;20460;-86
2022/09/04 00:10:30;;;;;;;7.83;7.17;;;17.00;99.90;;;;;;5038593;28;20490;-84
2022/09/04 00:13:05;;;;;;;8.97;8.10;;;16.90;99.90;;;;;;5014779;28;20460;-84
2022/09/04 00:15:36;;;;;;;9.30;7.40;;;16.90;99.90;;;;;;5024076;28;20479;-85
2022/09/04 00:18:08;;;;;;;7.37;6.57;;;16.90;99.90;;;;;;5020867;28;20453;-85
2022/09/04 00:20:40;;;;;;;7.50;6.90;;;16.90;99.90;;;;;;5016650;28;20448;-84
2022/09/04 00:23:18;;;;;;;7.70;6.93;;;16.90;99.90;;;;;;5016592;28;20567;-83
2022/09/04 00:25:52;;;;;;;9.90;8.20;;;16.80;99.90;;;;;;5017570;28;20526;-85
2022/09/04 00:28:31;;;;;;;10.63;8.40;;;16.80;99.90;;;;;;5018365;28;20487;-83
2022/09/04 00:31:03;;;;;;;9.70;7.80;;;16.70;99.90;;;;;;5018504;28;20559;-83
2022/09/04 00:33:40;;;;;;;9.50;8.60;;;16.80;99.90;;;;;;5017722;28;20623;-85
2022/09/04 00:36:07;;;;;;;10.87;8.07;;;16.70;99.90;;;;;;5017322;28;20491;-85
2022/09/04 00:38:42;;;;;;;9.17;7.40;;;16.70;99.90;;;;;;5017044;28;20460;-85
2022/09/04 00:41:18;;;;;;;9.50;7.50;;;16.70;99.90;;;;;;5017784;28;20452;-84
2022/09/04 00:44:31;;;;;;;9.03;7.93;;;16.60;99.90;;;;;;4998141;28;20462;-84
2022/09/04 00:47:26;;;;;;;8.20;7.40;;;16.60;99.90;;;;;;5004597;28;20458;-85
2022/09/04 00:50:13;;;;;;;8.67;7.90;;;16.60;99.90;;;;;;5031195;28;20971;-85
2022/09/04 00:52:59;;;;;;;8.07;6.97;;;16.60;99.90;;;;;;5038091;28;20447;-85
2022/09/04 00:55:40;;;;;;;8.00;7.23;;;16.50;99.90;;;;;;5028501;28;20472;-85
2022/09/04 00:58:17;;;;;;;8.57;7.37;;;16.50;99.90;;;;;;5017168;28;20458;-84
2022/09/04 01:00:47;;;;;;;6.93;6.23;;;16.50;99.90;;;;;;5017287;28;20455;-86
2022/09/04 01:03:41;;;;;;;7.27;6.60;;;16.50;99.90;;;;;;5016147;28;20455;-83
2022/09/04 01:06:28;;;;;;;8.27;7.20;;;16.40;99.90;;;;;;5028006;28;20467;-83
2022/09/04 01:09:31;;;;;;;8.63;7.90;;;16.40;99.90;;;;;;5014571;28;20460;-83
2022/09/04 01:12:11;;;;;;;10.03;8.07;;;16.30;99.90;;;;;;5009861;28;20495;-84
2022/09/04 01:14:43;;;;;;;9.00;8.10;;;16.30;99.90;;;;;;5013620;28;20568;-84
2022/09/04 01:17:18;;;;;;;7.47;6.80;;;16.40;99.90;;;;;;5013502;28;20545;-83
2022/09/04 01:19:55;;;;;;;11.30;7.97;;;16.30;99.90;;;;;;5013776;28;20458;-83
2022/09/04 01:22:40;;;;;;;8.20;7.20;;;16.40;99.90;;;;;;5014090;28;20459;-83
2022/09/04 01:25:21;;;;;;;7.67;7.07;;;16.30;99.90;;;;;;5013971;28;20527;-84
2022/09/04 01:27:59;;;;;;;6.70;6.10;;;16.30;99.90;;;;;;5013757;28;20951;-84
2022/09/04 01:30:27;;;;;;;9.53;7.27;;;16.30;99.90;;;;;;5013905;28;20451;-84
2022/09/04 01:33:04;;;;;;;7.70;7.00;;;16.30;99.90;;;;;;5013748;28;20483;-84
2022/09/04 01:35:39;;;;;;;6.83;6.23;;;16.30;99.90;;;;;;5013325;28;20471;-83
2022/09/04 01:38:13;;;;;;;8.77;7.13;;;16.30;99.90;;;;;;5013207;28;20458;-84
2022/09/04 01:40:45;;;;;;;8.97;7.10;;;16.30;99.90;;;;;;5012162;28;20458;-84
2022/09/04 01:43:17;;;;;;;7.67;6.97;;;16.30;99.90;;;;;;5012412;28;20460;-84
2022/09/04 01:46:15;;;;;;;7.37;6.70;;;16.30;99.90;;;;;;5013009;28;20839;-85
2022/09/04 01:48:49;;;;;;;6.47;5.93;;;16.20;99.90;;;;;;5012549;28;20458;-84
2022/09/04 01:51:23;;;;;;;8.13;7.20;;;16.20;99.90;;;;;;5012230;28;21011;-85
2022/09/04 01:54:03;;;;;;;7.57;6.50;;;16.20;99.90;;;;;;5012626;28;20452;-84
2022/09/04 01:56:38;;;;;;;7.10;6.20;;;16.10;99.90;;;;;;5012688;28;20466;-85
2022/09/04 01:59:15;;;;;;;7.33;6.63;;;16.20;99.90;;;;;;5012482;28;20450;-84
2022/09/04 02:01:48;;;;;;;6.67;5.97;;;16.10;99.90;;;;;;5022961;28;20803;-85
2022/09/04 02:04:21;;;;;;;8.83;7.40;;;15.90;99.90;;;;;;5012666;28;20490;-85
2022/09/04 02:06:57;;;;;;;6.73;6.10;;;15.90;99.90;;;;;;5012619;28;20823;-84
2022/09/04 02:09:36;;;;;;;6.00;5.50;;;15.90;99.90;;;;;;5011920;28;20483;-85
2022/09/04 02:12:10;;;;;;;8.30;6.80;;;15.90;99.90;;;;;;5012512;28;20494;-86
2022/09/04 02:14:44;;;;;;;5.67;5.27;;;15.90;99.90;;;;;;5012353;28;20481;-84
2022/09/04 02:17:17;;;;;;;6.20;5.70;;;15.90;99.90;;;;;;5012820;28;20435;-84
2022/09/04 02:20:01;;;;;;;6.63;5.83;;;15.90;99.90;;;;;;5012081;28;20464;-85
2022/09/04 02:22:36;;;;;;;6.07;5.53;;;15.90;99.90;;;;;;5012160;28;20829;-85
2022/09/04 02:25:10;;;;;;;7.17;6.60;;;15.90;99.90;;;;;;5012283;28;20987;-85
2022/09/04 02:27:46;;;;;;;6.33;5.83;;;15.90;99.90;;;;;;5012469;28;20467;-84
2022/09/04 02:30:18;;;;;;;6.27;5.60;;;15.90;99.90;;;;;;4992606;28;20469;-85
2022/09/04 02:32:53;;;;;;;6.53;5.80;;;15.80;99.90;;;;;;4992900;28;21018;-85
2022/09/04 02:35:27;;;;;;;5.70;5.23;;;15.80;99.90;;;;;;5012146;28;20476;-85
2022/09/04 02:38:04;;;;;;;5.43;4.93;;;15.80;99.90;;;;;;5011850;28;20458;-84
2022/09/04 02:40:37;;;;;;;5.37;4.83;;;15.80;99.90;;;;;;5012048;28;20455;-85
2022/09/04 02:43:22;;;;;;;5.40;4.90;;;15.80;99.90;;;;;;5012135;28;20481;-85
2022/09/04 02:45:59;;;;;;;5.23;4.83;;;15.70;99.90;;;;;;5012207;28;20988;-85
2022/09/04 02:48:39;;;;;;;6.20;5.67;;;15.80;99.90;;;;;;5011703;28;20454;-85
2022/09/04 02:51:19;;;;;;;5.30;4.90;;;15.70;99.90;;;;;;5012088;28;20479;-85
2022/09/04 02:53:56;;;;;;;6.93;5.90;;;15.70;99.90;;;;;;5011729;28;20450;-84
2022/09/04 02:56:35;;;;;;;5.50;5.00;;;15.70;99.90;;;;;;5026191;28;20436;-82
2022/09/04 02:59:17;;;;;;;6.00;5.20;;;15.70;99.90;;;;;;5011858;28;20858;-85
2022/09/04 03:01:52;;;;;;;6.43;5.47;;;15.70;99.90;;;;;;5012090;28;20430;-85
2022/09/04 03:04:24;;;;;;;7.00;6.30;;;15.60;99.90;;;;;;5016420;28;20480;-85
2022/09/04 03:06:54;;;;;;;6.20;5.70;;;15.60;99.90;;;;;;5018071;28;20437;-85
2022/09/04 03:09:27;;;;;;;5.97;5.40;;;15.60;99.90;;;;;;5018151;28;20455;-84
2022/09/04 03:12:00;;;;;;;4.77;4.30;;;15.60;99.90;;;;;;5018945;28;20474;-85
2022/09/04 03:14:35;;;;;;;6.40;5.90;;;15.60;99.90;;;;;;5018528;28;20991;-85
2022/09/04 03:17:11;;;;;;;5.83;4.70;;;15.50;99.90;;;;;;5018890;28;20451;-85
2022/09/04 03:19:46;;;;;;;6.47;5.60;;;15.50;99.90;;;;;;5017478;28;20463;-85
2022/09/04 03:22:18;;;;;;;6.30;5.80;;;15.50;99.90;;;;;;5017914;28;21070;-84
2022/09/04 03:25:05;;;;;;;5.07;4.60;;;15.50;99.90;;;;;;5018408;28;20528;-85
2022/09/04 03:27:34;;;;;;;5.47;5.00;;;15.40;99.90;;;;;;5018311;28;20451;-85
2022/09/04 03:30:05;;;;;;;7.53;6.10;;;15.50;99.90;;;;;;5017123;28;20450;-85
2022/09/04 03:32:45;;;;;;;6.73;5.03;;;15.50;99.90;;;;;;5016495;28;20489;-85
2022/09/04 03:35:20;;;;;;;5.40;4.90;;;15.50;99.90;;;;;;5019695;28;20475;-85
2022/09/04 03:38:08;;;;;;;6.37;5.87;;;15.50;99.90;;;;;;5020744;28;20983;-85
2022/09/04 03:40:38;;;;;;;5.03;4.60;;;15.50;99.90;;;;;;5021662;28;20446;-86
2022/09/04 03:43:29;;;;;;;4.50;4.13;;;15.50;99.90;;;;;;5020732;28;20954;-85
2022/09/04 03:46:03;;;;;;;5.33;4.93;;;15.50;99.90;;;;;;5008957;28;20488;-86
2022/09/04 03:48:46;;;;;;;5.53;5.03;;;15.40;99.90;;;;;;5020618;28;20488;-86
2022/09/04 03:51:23;;;;;;;5.43;5.00;;;15.50;99.90;;;;;;5020842;28;20437;-85
2022/09/04 03:54:00;;;;;;;6.50;4.83;;;15.50;99.90;;;;;;5020982;28;20474;-84
2022/09/04 03:57:01;;;;;;;6.00;5.50;;;15.40;99.90;;;;;;5020619;28;20468;-85
2022/09/04 03:59:53;;;;;;;6.20;5.60;;;15.40;99.90;;;;;;5018044;28;20497;-85
2022/09/04 04:02:28;;;;;;;5.03;4.60;;;15.40;99.90;;;;;;5020028;28;20449;-86
2022/09/04 04:05:24;;;;;;;5.60;5.10;;;15.40;99.90;;;;;;5019901;28;20467;-85
2022/09/04 04:08:09;;;;;;;6.53;5.93;;;15.40;99.90;;;;;;5019565;28;20452;-85
2022/09/04 04:10:51;;;;;;;4.37;4.00;;;15.40;99.90;;;;;;5020243;28;20450;-87
2022/09/04 04:13:50;;;;;;;5.90;5.50;;;15.40;99.90;;;;;;5020293;28;20530;-85
2022/09/04 04:16:31;;;;;;;6.00;5.50;;;15.40;99.90;;;;;;5019341;28;20485;-87
2022/09/04 04:19:32;;;;;;;6.27;5.67;;;15.30;99.90;;;;;;5020487;28;20612;-84
2022/09/04 04:22:21;;;;;;;6.33;5.70;;;15.30;99.90;;;;;;5019729;28;20427;-85
2022/09/04 04:25:05;;;;;;;6.10;5.57;;;15.30;99.90;;;;;;5000651;28;20830;-85
2022/09/04 04:27:46;;;;;;;5.90;5.40;;;15.30;99.90;;;;;;5001475;28;20426;-87
2022/09/04 04:30:15;;;;;;;6.10;5.60;;;15.30;99.90;;;;;;5019543;28;20440;-86
2022/09/04 04:33:13;;;;;;;5.13;4.77;;;15.30;99.90;;;;;;5018824;28;20487;-85
2022/09/04 04:35:48;;;;;;;4.93;4.63;;;15.30;99.90;;;;;;4999984;28;20486;-85
2022/09/04 04:38:31;;;;;;;5.43;4.93;;;15.20;99.90;;;;;;5020641;28;21002;-86
2022/09/04 04:41:20;;;;;;;5.20;4.80;;;15.20;99.90;;;;;;5019958;28;20502;-85
2022/09/04 04:44:00;;;;;;;6.80;6.30;;;15.20;99.90;;;;;;5020310;28;20448;-85
2022/09/04 04:46:37;;;;;;;6.00;5.60;;;15.20;99.90;;;;;;5019675;28;20451;-85
2022/09/04 04:49:22;;;;;;;6.60;6.10;;;15.20;99.90;;;;;;5019786;28;20443;-85
2022/09/04 04:52:19;;;;;;;5.63;5.23;;;15.20;99.90;;;;;;5019366;28;20969;-84
2022/09/04 04:55:04;;;;;;;5.80;5.30;;;15.20;99.90;;;;;;5019002;28;20468;-85
2022/09/04 04:57:39;;;;;;;8.23;5.37;;;15.10;99.90;;;;;;5018480;28;20472;-85
2022/09/04 05:00:14;;;;;;;6.90;6.30;;;15.10;99.90;;;;;;5018621;28;20451;-85
2022/09/04 05:02:50;;;;;;;6.40;5.90;;;15.10;99.90;;;;;;5018539;28;20434;-84
2022/09/04 05:05:25;;;;;;;7.77;7.07;;;15.10;99.90;;;;;;5017311;28;20479;-84
2022/09/04 05:08:02;;;;;;;5.57;5.07;;;15.10;99.90;;;;;;5018008;28;20480;-85
2022/09/04 05:10:34;;;;;;;7.20;6.63;;;15.10;99.90;;;;;;5017697;28;20439;-84
2022/09/04 05:13:12;;;;;;;5.73;5.20;;;15.10;99.90;;;;;;5014497;28;20490;-84
2022/09/04 05:15:43;;;;;;;7.13;6.50;;;15.10;99.90;;;;;;5013636;28;20477;-85
2022/09/04 05:18:16;;;;;;;6.33;5.70;;;15.10;99.90;;;;;;5013170;28;20455;-85
2022/09/04 05:20:52;;;;;;;6.80;5.80;;;15.10;99.90;;;;;;5013685;28;20463;-85
2022/09/04 05:23:29;;;;;;;6.80;6.20;;;15.10;99.90;;;;;;5013297;28;20441;-84
2022/09/04 05:26:06;;;;;;;7.10;6.50;;;15.10;99.90;;;;;;5013437;28;20474;-85
2022/09/04 05:28:45;;;;;;;7.07;6.37;;;15.10;99.90;;;;;;5012942;28;20458;-85
2022/09/04 05:31:21;;;;;;;6.60;6.10;;;15.20;99.90;;;;;;5013404;28;20438;-85
2022/09/04 05:33:56;;;;;;;8.00;7.30;;;15.20;99.90;;;;;;5013243;28;20478;-85
2022/09/04 05:36:32;;;;;;;6.97;6.33;;;15.20;99.90;;;;;;5013082;28;20535;-85
2022/09/04 05:39:08;;;;;;;7.07;6.50;;;15.30;99.90;;;;;;5012861;28;20453;-85
2022/09/04 05:41:52;;;;;;;6.93;6.43;;;15.30;99.90;;;;;;5013192;28;20809;-85
2022/09/04 05:44:37;;;;;;;6.30;5.70;;;15.30;99.90;;;;;;5012937;28;20554;-85
2022/09/04 05:47:17;;;;;;;7.20;6.50;;;15.30;99.90;;;;;;5012749;28;20947;-85
2022/09/04 05:50:05;;;;;;;7.63;6.87;;;15.30;99.90;;;;;;5012825;28;20863;-85
2022/09/04 05:53:01;;;;;;;6.37;5.83;;;15.40;99.90;;;;;;5013140;28;20564;-85
2022/09/04 05:55:56;;;;;;;6.90;6.33;;;15.40;99.90;;;;;;5012940;28;20474;-84
2022/09/04 05:58:40;;;;;;;8.10;7.00;;;15.50;99.90;;;;;;5011995;28;20947;-85
2022/09/04 06:01:21;;;;;;;7.77;6.63;;;15.50;99.90;;;;;;5012942;28;20435;-86
2022/09/04 06:04:07;;;;;;;6.40;5.80;;;15.50;99.90;;;;;;5013106;28;20439;-85
2022/09/04 06:06:39;;;;;;;8.30;7.50;;;15.60;99.90;;;;;;5012514;28;20436;-85
2022/09/04 06:09:23;;;;;;;7.43;6.73;;;15.70;99.90;;;;;;5012608;28;20796;-85
2022/09/04 06:12:13;;;;;;;6.87;6.27;;;15.70;99.90;;;;;;5012279;28;20458;-85
2022/09/04 06:14:57;;;;;;;7.87;7.13;;;15.80;99.90;;;;;;5012422;28;20482;-84
2022/09/04 06:17:34;;;;;;;6.97;6.37;;;15.90;99.90;;;;;;5012383;28;20427;-85
2022/09/04 06:20:18;;;;;;;6.50;5.70;;;15.90;99.90;;;;;;5012761;28;20459;-85
2022/09/04 06:23:01;;;;;;;7.50;6.77;;;16.00;99.90;;;;;;5012508;28;20451;-84
2022/09/04 06:25:53;;;;;;;8.03;5.90;;;16.10;99.90;;;;;;5012687;28;20471;-85
2022/09/04 06:28:46;;;;;;;6.77;6.03;;;16.20;99.90;;;;;;5012441;28;20432;-85
2022/09/04 06:31:41;;;;;;;6.73;6.23;;;16.30;99.90;;;;;;5005755;28;20835;-84
2022/09/04 06:34:20;;;;;;;7.87;7.07;;;16.40;99.90;;;;;;4999877;28;20486;-84
2022/09/04 06:37:02;;;;;;;8.10;7.40;;;16.40;99.90;;;;;;5016956;28;20445;-84
2022/09/04 06:39:50;;;;;;;8.90;8.00;;;16.50;99.90;;;;;;4998341;28;20458;-85
2022/09/04 06:42:31;;;;;;;7.37;6.60;;;16.60;99.90;;;;;;5020928;28;20443;-85
2022/09/04 06:45:19;;;;;;;7.50;6.90;;;16.60;99.90;;;;;;5008197;28;20467;-85
2022/09/04 06:48:00;;;;;;;7.80;7.10;;;16.70;99.90;;;;;;5016998;28;20932;-84
2022/09/04 06:50:35;;;;;;;8.00;7.20;;;16.80;99.90;;;;;;5023387;28;20447;-84
2022/09/04 06:53:18;;;;;;;7.97;7.20;;;16.90;99.90;;;;;;5016315;28;20843;-85
2022/09/04 06:55:57;;;;;;;8.70;7.90;;;17.10;99.90;;;;;;5005341;28;20486;-85
2022/09/04 06:58:44;;;;;;;7.30;6.70;;;17.10;99.90;;;;;;5025575;28;20985;-85
2022/09/04 07:01:16;;;;;;;9.47;7.70;;;17.20;99.90;;;;;;5013700;28;20451;-85
2022/09/04 07:03:57;;;;;;;9.03;8.23;;;17.30;99.90;;;;;;5022093;28;20445;-86
2022/09/04 07:06:29;;;;;;;8.50;7.80;;;17.40;99.90;;;;;;5029268;28;20921;-85
2022/09/04 07:09:07;;;;;;;9.07;8.27;;;17.50;99.90;;;;;;5024852;28;20437;-85
2022/09/04 07:11:49;;;;;;;8.00;7.30;;;17.60;99.90;;;;;;5025655;28;20444;-85
2022/09/04 07:14:33;;;;;;;8.70;7.80;;;17.70;99.90;;;;;;5037691;28;20582;-85
2022/09/04 07:17:07;;;;;;;7.23;6.63;;;17.80;99.90;;;;;;5026957;28;20451;-86
2022/09/04 07:20:06;;;;;;;7.87;7.17;;;17.90;99.90;;;;;;5030701;28;20448;-85
2022/09/04 07:23:02;;;;;;;7.37;6.77;;;18.10;99.90;;;;;;5034967;28;20462;-86
2022/09/04 07:25:41;;;;;;;8.80;8.00;;;18.20;99.90;;;;;;5025382;28;20471;-85
2022/09/04 07:28:26;;;;;;;8.40;7.60;;;18.20;99.90;;;;;;5028167;28;21089;-86
2022/09/04 07:31:02;;;;;;;7.30;6.70;;;18.30;99.90;;;;;;5024462;28;20539;-85
2022/09/04 07:33:36;;;;;;;7.77;7.07;;;18.40;99.90;;;;;;5027030;28;20492;-85
2022/09/04 07:36:12;;;;;;;7.10;6.53;;;18.50;99.90;;;;;;5031785;28;20470;-85
2022/09/04 07:38:46;;;;;;;7.67;6.97;;;18.60;99.90;;;;;;5029811;28;20467;-85
2022/09/04 07:41:18;;;;;;;6.70;6.00;;;18.70;99.90;;;;;;5001896;28;20443;-86
2022/09/04 07:43:53;;;;;;;7.50;6.13;;;18.80;99.90;;;;;;5020216;28;20457;-85
2022/09/04 07:46:32;;;;;;;5.87;5.37;;;18.80;99.90;;;;;;5024022;28;20977;-85
2022/09/04 07:49:05;;;;;;;6.43;5.90;;;18.90;99.90;;;;;;5023339;28;20462;-85
2022/09/04 10:19:29;;;;;;;3.13;2.83;;;24.50;99.90;;;;;;3042178;22;20499;-85
2022/09/04 10:22:37;;;;;;;1.60;1.50;;;24.80;99.90;;;;;;5057434;28;20454;-85
2022/09/04 10:25:23;;;;;;;2.50;2.30;;;25.10;99.90;;;;;;4970207;28;20475;-84
2022/09/04 10:28:18;;;;;;;1.67;1.57;;;25.20;99.80;;;;;;5056267;28;20446;-85
2022/09/04 10:31:12;;;;;;;2.00;1.73;;;25.30;99.30;;;;;;5056631;28;20461;-86
2022/09/04 10:33:53;;;;;;;1.67;1.57;;;25.20;98.50;;;;;;5054562;28;20481;-84
2022/09/04 10:36:34;;;;;;;1.80;1.70;;;25.10;98.00;;;;;;5058724;28;20432;-84
2022/09/04 10:42:31;;;;;;;2.27;2.07;;;25.10;97.80;;;;;;5059762;28;20441;-86
2022/09/04 10:45:21;;;;;;;1.50;1.40;;;25.10;96.90;;;;;;5049044;28;20473;-84
2022/09/04 10:48:38;;;;;;;1.33;1.27;;;25.10;96.30;;;;;;5074770;28;20512;-83
2022/09/04 10:51:49;;;;;;;1.90;1.80;;;25.30;96.20;;;;;;5069518;28;20911;-84
2022/09/04 10:54:53;;;;;;;2.13;1.67;;;25.40;96.30;;;;;;5015495;28;20497;-85
2022/09/04 10:57:36;;;;;;;2.10;1.53;;;25.70;96.00;;;;;;5062656;28;20482;-85
2022/09/04 11:00:09;;;;;;;2.07;1.87;;;26.00;96.60;;;;;;5062052;28;20460;-84
2022/09/04 11:03:11;;;;;;;1.87;1.77;;;26.70;97.70;;;;;;5062464;28;20444;-85
2022/09/04 11:06:06;;;;;;;1.90;1.80;;;27.70;97.10;;;;;;5063398;28;20482;-84
2022/09/04 11:08:46;;;;;;;1.80;1.70;;;28.60;91.50;;;;;;5063052;28;20452;-84
2022/09/04 11:11:28;;;;;;;1.87;1.77;;;29.30;90.30;;;;;;5054070;28;20443;-85
2022/09/04 11:14:27;;;;;;;1.97;1.40;;;30.10;90.20;;;;;;5065221;28;20487;-85
2022/09/04 11:17:16;;;;;;;1.70;1.60;;;31.10;86.40;;;;;;5062862;28;20460;-86
2022/09/04 11:20:26;;;;;;;1.80;1.70;;;32.00;78.30;;;;;;5067044;28;20470;-85
2022/09/04 11:23:41;;;;;;;2.00;1.90;;;33.00;76.20;;;;;;5066716;28;20829;-85
2022/09/04 11:26:46;;;;;;;2.23;1.73;;;33.90;68.60;;;;;;5066737;28;20479;-86
2022/09/04 11:29:28;;;;;;;1.80;1.70;;;34.30;61.40;;;;;;5065771;28;20466;-85
2022/09/04 11:32:14;;;;;;;1.40;1.30;;;34.00;60.80;;;;;;5062130;28;20513;-84
2022/09/04 11:35:28;;;;;;;2.23;2.00;;;33.60;61.50;;;;;;5058262;28;20487;-85
2022/09/04 11:38:02;;;;;;;1.60;1.50;;;33.40;64.40;;;;;;5053449;28;20446;-85
2022/09/04 11:40:54;;;;;;;1.70;1.60;;;33.90;65.10;;;;;;5058844;28;20443;-85
2022/09/04 11:43:43;;;;;;;2.33;2.10;;;34.30;61.80;;;;;;5058517;28;20448;-85
2022/09/04 11:46:30;;;;;;;1.90;1.80;;;34.20;59.00;;;;;;5059186;28;20472;-83
2022/09/04 11:49:12;;;;;;;2.00;1.77;;;33.00;58.90;;;;;;5060795;28;20493;-85
2022/09/04 11:52:12;;;;;;;1.67;1.57;;;32.10;60.80;;;;;;5063215;28;20442;-85
2022/09/04 11:55:12;;;;;;;1.80;1.70;;;31.30;60.60;;;;;;5057533;28;20581;-84
2022/09/04 11:57:58;;;;;;;1.83;1.73;;;30.60;64.40;;;;;;5053913;28;20986;-84
2022/09/04 12:00:27;;;;;;;1.53;1.43;;;30.50;66.40;;;;;;5056259;28;20965;-85
2022/09/04 12:03:48;;;;;;;1.83;1.73;;;30.30;67.60;;;;;;5056295;28;20456;-84
2022/09/04 12:06:28;;;;;;;1.77;1.67;;;30.20;68.70;;;;;;4959920;28;20484;-84
2022/09/04 12:09:42;;;;;;;1.77;1.67;;;30.20;70.80;;;;;;5055613;28;20453;-85
2022/09/04 12:12:52;;;;;;;2.20;2.10;;;30.20;67.40;;;;;;5055395;28;20522;-84
2022/09/04 12:15:58;;;;;;;1.83;1.73;;;30.30;65.60;;;;;;5023437;28;21009;-84
2022/09/04 12:19:19;;;;;;;1.60;1.50;;;30.30;66.90;;;;;;5061225;28;20450;-82
2022/09/04 12:22:30;;;;;;;1.20;1.20;;;30.20;65.30;;;;;;5061717;28;20974;-84
2022/09/04 12:25:27;;;;;;;1.87;1.77;;;30.30;66.70;;;;;;5058333;28;20509;-83
2022/09/04 12:28:36;;;;;;;1.70;1.60;;;30.70;61.70;;;;;;5041038;28;21100;-83
2022/09/04 12:31:28;;;;;;;1.70;1.60;;;31.70;60.80;;;;;;5023913;28;20457;-83
2022/09/04 12:34:08;;;;;;;1.63;1.50;;;32.80;58.60;;;;;;5061222;28;20491;-82
2022/09/04 12:37:10;;;;;;;1.43;1.33;;;33.70;55.90;;;;;;5061696;28;20447;-83
2022/09/04 12:40:07;;;;;;;1.47;1.37;;;33.70;54.00;;;;;;5061193;28;20458;-83
2022/09/04 12:42:37;;;;;;;2.20;2.00;;;33.40;56.10;;;;;;5062161;28;20539;-84
2022/09/04 12:45:16;;;;;;;1.47;1.37;;;33.00;56.50;;;;;;5061384;28;20465;-83
2022/09/04 12:47:57;;;;;;;1.90;1.80;;;32.20;56.20;;;;;;5060519;28;20460;-84
2022/09/04 12:50:33;;;;;;;1.63;1.53;;;32.60;58.80;;;;;;5060516;28;20490;-83
2022/09/04 12:53:24;;;;;;;1.63;1.53;;;33.00;56.20;;;;;;5058008;28;20453;-81
2022/09/04 12:55:59;;;;;;;3.03;1.73;;;32.60;55.70;;;;;;5055753;28;20523;-81
2022/09/04 12:58:33;;;;;;;1.70;1.60;;;32.40;57.10;;;;;;5055445;28;20911;-82
2022/09/04 13:01:09;;;;;;;1.47;1.37;;;32.20;56.90;;;;;;5055463;28;20447;-81
2022/09/04 13:03:46;;;;;;;1.80;1.70;;;32.00;57.40;;;;;;5056371;28;20449;-83
2022/09/04 13:06:26;;;;;;;2.10;1.97;;;31.50;57.50;;;;;;5072678;28;20463;-81
2022/09/04 13:09:05;;;;;;;2.10;2.00;;;31.20;59.00;;;;;;5069515;28;20454;-83
2022/09/04 13:11:46;;;;;;;2.13;2.03;;;30.60;59.10;;;;;;5061677;28;20450;-83
2022/09/04 13:14:37;;;;;;;1.90;1.70;;;30.00;59.70;;;;;;5056402;28;20495;-85
2022/09/04 13:17:13;;;;;;;1.80;1.70;;;29.40;60.20;;;;;;5037147;28;20452;-83
2022/09/04 13:19:48;;;;;;;5.03;2.00;;;29.10;62.40;;;;;;5044907;28;20467;-84
2022/09/04 13:22:34;;;;;;;1.90;1.80;;;28.90;65.40;;;;;;5055899;28;20454;-86
2022/09/04 13:25:13;;;;;;;2.13;1.93;;;28.70;65.30;;;;;;5055650;28;20474;-85
2022/09/04 13:27:57;;;;;;;2.07;1.97;;;28.70;67.70;;;;;;5054931;28;20455;-85
2022/09/04 13:30:25;;;;;;;2.03;1.93;;;29.60;68.90;;;;;;5055631;28;20487;-84
2022/09/04 13:33:14;;;;;;;1.60;1.50;;;30.90;65.10;;;;;;5054848;28;20799;-85
2022/09/04 13:36:09;;;;;;;2.13;1.87;;;32.50;62.80;;;;;;5057083;28;20507;-85
2022/09/04 13:39:06;;;;;;;2.27;1.70;;;33.70;57.40;;;;;;5053408;28;20448;-83
2022/09/04 13:42:03;;;;;;;1.60;1.50;;;35.00;52.80;;;;;;5040057;28;20441;-85
2022/09/04 13:45:03;;;;;;;2.13;1.93;;;35.80;51.10;;;;;;5049587;28;20484;-84
2022/09/04 13:47:38;;;;;;;1.80;1.70;;;36.20;49.50;;;;;;5056149;28;20453;-83
2022/09/04 13:50:09;;;;;;;1.60;1.50;;;36.40;49.90;;;;;;5055235;28;20440;-86
2022/09/04 13:52:42;;;;;;;2.23;1.50;;;37.00;49.00;;;;;;5055480;28;20460;-85
2022/09/04 13:55:16;;;;;;;1.63;1.53;;;37.70;47.50;;;;;;5055714;28;20468;-85
2022/09/04 13:57:52;;;;;;;1.80;1.70;;;37.50;44.80;;;;;;5055995;28;20483;-85
2022/09/04 14:00:20;;;;;;;1.33;1.33;;;37.60;45.00;;;;;;5061320;28;20448;-85
2022/09/04 14:02:56;;;;;;;2.00;1.83;;;38.10;45.60;;;;;;5061336;28;20471;-85
2022/09/04 14:05:26;;;;;;;1.73;1.63;;;38.40;45.30;;;;;;5060926;28;20488;-86
2022/09/04 14:08:01;;;;;;;1.97;1.87;;;38.00;42.90;;;;;;5060465;28;21019;-85
2022/09/04 14:10:49;;;;;;;1.70;1.60;;;37.90;44.90;;;;;;5061068;28;20448;-85
2022/09/04 14:13:29;;;;;;;2.03;1.87;;;37.70;44.60;;;;;;5061265;28;20460;-85
2022/09/04 14:16:05;;;;;;;2.07;1.97;;;37.40;45.30;;;;;;5060758;28;20511;-84
2022/09/04 14:18:51;;;;;;;2.00;1.80;;;37.20;44.50;;;;;;5060099;28;20455;-86
2022/09/04 14:21:29;;;;;;;1.83;1.60;;;36.70;45.10;;;;;;5062181;28;20452;-86
2022/09/04 14:24:06;;;;;;;1.87;1.77;;;36.20;44.90;;;;;;5060693;28;20853;-85
2022/09/04 14:26:42;;;;;;;2.13;2.03;;;35.50;46.20;;;;;;5059155;28;20459;-85
2022/09/04 14:29:21;;;;;;;2.20;2.10;;;34.50;46.80;;;;;;5053870;28;20538;-85
2022/09/04 14:31:56;;;;;;;2.00;1.90;;;33.90;48.30;;;;;;5052673;28;20456;-83
2022/09/04 14:34:37;;;;;;;1.70;1.60;;;33.80;49.20;;;;;;5055793;28;20481;-85
2022/09/04 14:37:15;;;;;;;1.90;1.80;;;33.40;48.50;;;;;;5055794;28;20487;-83
2022/09/04 14:39:48;;;;;;;2.30;2.10;;;33.30;48.30;;;;;;5055713;28;20454;-85
2022/09/04 14:42:44;;;;;;;1.40;1.40;;;33.40;50.80;;;;;;5056497;28;20459;-84
2022/09/04 14:45:31;;;;;;;1.77;1.67;;;34.10;49.20;;;;;;5055129;28;20494;-84
2022/09/04 14:48:02;;;;;;;2.83;2.27;;;34.60;48.20;;;;;;5053922;28;20481;-84
2022/09/04 14:50:33;;;;;;;3.53;2.00;;;35.00;47.20;;;;;;5054436;28;20474;-83
2022/09/04 14:53:03;;;;;;;1.87;1.77;;;35.40;46.00;;;;;;5049191;28;20797;-83
2022/09/04 14:55:32;;;;;;;2.20;2.10;;;35.90;45.50;;;;;;5054318;28;20468;-83
2022/09/04 14:58:05;;;;;;;2.07;1.97;;;36.20;43.60;;;;;;5054099;28;20467;-84
2022/09/04 15:00:51;;;;;;;2.17;2.03;;;36.30;45.00;;;;;;5053771;28;20436;-84
2022/09/04 15:03:24;;;;;;;1.90;1.80;;;36.70;44.50;;;;;;5053981;28;20462;-84
2022/09/04 15:05:55;;;;;;;2.80;1.67;;;37.30;43.10;;;;;;5054103;28;20856;-84
2022/09/04 15:08:28;;;;;;;1.70;1.60;;;37.80;40.80;;;;;;5053904;28;20428;-84
2022/09/04 15:10:59;;;;;;;1.80;1.70;;;38.00;40.90;;;;;;5054071;28;21082;-83
2022/09/04 15:13:51;;;;;;;1.73;1.63;;;38.10;40.70;;;;;;5047213;28;21813;-84
2022/09/04 15:16:29;;;;;;;1.70;1.70;;;37.90;40.20;;;;;;5047025;28;20467;-83
2022/09/04 15:19:03;;;;;;;2.10;1.93;;;37.60;41.10;;;;;;5053780;28;20458;-83
2022/09/04 15:21:42;;;;;;;2.00;1.90;;;36.90;40.80;;;;;;5062858;28;20420;-82
2022/09/04 15:24:23;;;;;;;1.80;1.70;;;36.60;42.20;;;;;;5065907;28;20480;-81
2022/09/04 15:26:58;;;;;;;1.70;1.60;;;36.10;42.40;;;;;;5054951;28;21041;-84
2022/09/04 15:29:37;;;;;;;2.43;2.20;;;35.50;43.40;;;;;;5046963;28;20444;-84
2022/09/04 15:32:07;;;;;;;4.10;2.00;;;34.90;44.00;;;;;;5049245;28;20996;-84
2022/09/04 15:34:35;;;;;;;1.80;1.70;;;34.20;44.30;;;;;;5044745;28;20493;-84
2022/09/04 15:37:16;;;;;;;1.90;1.80;;;33.70;46.10;;;;;;5047508;28;20454;-84
2022/09/04 15:39:53;;;;;;;2.03;1.83;;;33.00;46.80;;;;;;5047553;28;20790;-84
2022/09/04 15:42:37;;;;;;;4.07;2.83;;;32.60;48.00;;;;;;5045397;28;20448;-85
2022/09/04 15:45:11;;;;;;;2.37;2.17;;;31.60;48.20;;;;;;5043855;28;20490;-83
2022/09/04 15:48:03;;;;;;;2.03;1.93;;;31.30;49.40;;;;;;5049550;28;20513;-83
2022/09/04 15:50:35;;;;;;;2.20;2.10;;;31.50;50.30;;;;;;5047254;28;20452;-83
2022/09/04 15:53:19;;;;;;;1.87;1.77;;;31.90;49.60;;;;;;5048514;28;20472;-83
2022/09/04 15:55:49;;;;;;;2.60;1.90;;;32.10;48.40;;;;;;5047983;28;20465;-83
2022/09/04 15:58:25;;;;;;;1.97;1.87;;;32.10;48.00;;;;;;5054789;28;20924;-81
2022/09/04 16:01:12;;;;;;;5.83;3.33;;;32.00;47.70;;;;;;5054346;28;20468;-83
2022/09/04 16:03:51;;;;;;;2.20;2.00;;;31.70;48.70;;;;;;5037300;28;20456;-82
2022/09/04 16:06:22;;;;;;;2.00;1.90;;;31.90;48.70;;;;;;5051143;28;20482;-82
2022/09/04 16:08:54;;;;;;;2.27;2.13;;;31.50;48.20;;;;;;5056319;28;20442;-83
2022/09/04 16:11:26;;;;;;;2.00;1.90;;;31.70;49.50;;;;;;5053968;28;20519;-82
2022/09/04 16:13:56;;;;;;;2.60;2.50;;;31.70;49.30;;;;;;5039466;28;20475;-83
2022/09/04 16:16:25;;;;;;;2.30;2.10;;;31.80;49.10;;;;;;5057343;28;20450;-81
2022/09/04 16:19:00;;;;;;;2.27;2.17;;;31.90;49.10;;;;;;5056283;28;20468;-81
2022/09/04 16:21:39;;;;;;;2.10;2.00;;;31.70;47.60;;;;;;5057041;28;20444;-82
2022/09/04 16:24:07;;;;;;;1.70;1.60;;;31.20;48.10;;;;;;5057030;28;20475;-81
2022/09/04 16:26:34;;;;;;;2.13;2.03;;;31.10;48.70;;;;;;5057127;28;20451;-80
2022/09/04 16:29:05;;;;;;;2.13;1.93;;;30.50;48.20;;;;;;5053682;28;20440;-82